sensor_id;sensor_type;location;lat;lon;timestamp;P1;durP1;ratioP1;P2;durP2;ratioP2
34317;SDS011;20582;52.196;20.952;2022-12-29T00:01:54;14.43;;;6.93;;
34317;SDS011;20582;52.196;20.952;2022-12-29T00:04:20;16.52;;;7.65;;
34317;SDS011;20582;52.196;20.952;2022-12-29T00:06:46;16.60;;;7.38;;
34317;SDS011;20582;52.196;20.952;2022-12-29T00:09:13;14.93;;;6.88;;
34317;SDS011;20582;52.196;20.952;2022-12-29T00:11:39;15.20;;;6.55;;
34317;SDS011;20582;52.196;20.952;2022-12-29T00:14:05;14.85;;;6.65;;
34317;SDS011;20582;52.196;20.952;2022-12-29T00:16:50;15.95;;;7.47;;
34317;SDS011;20582;52.196;20.952;2022-12-29T00:19:16;15.00;;;6.70;;
34317;SDS011;20582;52.196;20.952;2022-12-29T00:22:01;14.48;;;7.18;;
34317;SDS011;20582;52.196;20.952;2022-12-29T00:24:45;13.93;;;6.95;;
34317;SDS011;20582;52.196;20.952;2022-12-29T00:27:30;16.65;;;6.80;;
34317;SDS011;20582;52.196;20.952;2022-12-29T00:30:24;14.25;;;6.80;;
34317;SDS011;20582;52.196;20.952;2022-12-29T00:33:12;15.15;;;6.90;;
34317;SDS011;20582;52.196;20.952;2022-12-29T00:35:59;12.82;;;6.63;;
34317;SDS011;20582;52.196;20.952;2022-12-29T00:38:26;14.68;;;6.40;;
34317;SDS011;20582;52.196;20.952;2022-12-29T00:41:10;13.43;;;6.90;;
34317;SDS011;20582;52.196;20.952;2022-12-29T00:43:55;14.98;;;6.60;;
34317;SDS011;20582;52.196;20.952;2022-12-29T00:46:30;12.55;;;6.18;;
34317;SDS011;20582;52.196;20.952;2022-12-29T00:48:56;15.77;;;6.40;;
34317;SDS011;20582;52.196;20.952;2022-12-29T00:51:41;14.50;;;6.60;;
34317;SDS011;20582;52.196;20.952;2022-12-29T00:54:08;13.25;;;6.40;;
34317;SDS011;20582;52.196;20.952;2022-12-29T00:56:34;11.48;;;6.07;;
34317;SDS011;20582;52.196;20.952;2022-12-29T00:59:04;13.90;;;6.43;;
34317;SDS011;20582;52.196;20.952;2022-12-29T01:01:30;14.60;;;6.57;;
34317;SDS011;20582;52.196;20.952;2022-12-29T01:03:56;12.35;;;6.07;;
34317;SDS011;20582;52.196;20.952;2022-12-29T01:06:22;11.07;;;5.78;;
34317;SDS011;20582;52.196;20.952;2022-12-29T01:08:48;12.90;;;5.95;;
34317;SDS011;20582;52.196;20.952;2022-12-29T01:11:34;16.45;;;6.53;;
34317;SDS011;20582;52.196;20.952;2022-12-29T01:14:00;14.50;;;5.78;;
34317;SDS011;20582;52.196;20.952;2022-12-29T01:16:26;14.27;;;6.50;;
34317;SDS011;20582;52.196;20.952;2022-12-29T01:18:52;13.50;;;6.50;;
34317;SDS011;20582;52.196;20.952;2022-12-29T01:21:18;13.18;;;6.10;;
34317;SDS011;20582;52.196;20.952;2022-12-29T01:23:44;14.15;;;6.07;;
34317;SDS011;20582;52.196;20.952;2022-12-29T01:26:11;12.57;;;6.18;;
34317;SDS011;20582;52.196;20.952;2022-12-29T01:28:37;13.73;;;5.63;;
34317;SDS011;20582;52.196;20.952;2022-12-29T01:31:07;12.25;;;6.00;;
34317;SDS011;20582;52.196;20.952;2022-12-29T01:33:33;13.82;;;6.20;;
34317;SDS011;20582;52.196;20.952;2022-12-29T01:36:06;13.65;;;6.00;;
34317;SDS011;20582;52.196;20.952;2022-12-29T01:38:32;11.77;;;5.85;;
34317;SDS011;20582;52.196;20.952;2022-12-29T01:40:58;16.83;;;6.50;;
34317;SDS011;20582;52.196;20.952;2022-12-29T01:46:14;11.70;;;6.13;;
34317;SDS011;20582;52.196;20.952;2022-12-29T01:48:41;11.73;;;5.35;;
34317;SDS011;20582;52.196;20.952;2022-12-29T01:51:08;12.95;;;5.72;;
34317;SDS011;20582;52.196;20.952;2022-12-29T01:53:34;12.63;;;5.93;;
34317;SDS011;20582;52.196;20.952;2022-12-29T01:56:02;11.63;;;5.82;;
34317;SDS011;20582;52.196;20.952;2022-12-29T01:58:30;12.40;;;5.88;;
34317;SDS011;20582;52.196;20.952;2022-12-29T02:00:58;11.18;;;6.07;;
34317;SDS011;20582;52.196;20.952;2022-12-29T02:03:25;14.93;;;5.90;;
34317;SDS011;20582;52.196;20.952;2022-12-29T02:05:56;14.77;;;5.75;;
34317;SDS011;20582;52.196;20.952;2022-12-29T02:08:24;13.13;;;5.90;;
34317;SDS011;20582;52.196;20.952;2022-12-29T02:10:52;10.73;;;5.55;;
34317;SDS011;20582;52.196;20.952;2022-12-29T02:13:19;12.48;;;5.85;;
34317;SDS011;20582;52.196;20.952;2022-12-29T02:18:23;12.00;;;5.70;;
34317;SDS011;20582;52.196;20.952;2022-12-29T02:23:36;13.77;;;5.75;;
34317;SDS011;20582;52.196;20.952;2022-12-29T02:26:11;12.65;;;6.15;;
34317;SDS011;20582;52.196;20.952;2022-12-29T02:39:21;12.70;;;6.15;;
34317;SDS011;20582;52.196;20.952;2022-12-29T02:42:01;12.77;;;6.28;;
34317;SDS011;20582;52.196;20.952;2022-12-29T02:49:34;12.98;;;5.88;;
34317;SDS011;20582;52.196;20.952;2022-12-29T02:52:15;14.15;;;5.90;;
34317;SDS011;20582;52.196;20.952;2022-12-29T02:54:42;15.23;;;6.50;;
34317;SDS011;20582;52.196;20.952;2022-12-29T02:59:37;14.13;;;6.28;;
34317;SDS011;20582;52.196;20.952;2022-12-29T03:07:22;11.85;;;5.95;;
34317;SDS011;20582;52.196;20.952;2022-12-29T03:12:39;13.93;;;5.88;;
34317;SDS011;20582;52.196;20.952;2022-12-29T03:15:44;13.10;;;6.28;;
34317;SDS011;20582;52.196;20.952;2022-12-29T03:18:30;13.20;;;6.30;;
34317;SDS011;20582;52.196;20.952;2022-12-29T03:20:58;12.05;;;5.90;;
34317;SDS011;20582;52.196;20.952;2022-12-29T03:23:26;13.48;;;6.18;;
34317;SDS011;20582;52.196;20.952;2022-12-29T03:25:53;12.57;;;5.75;;
34317;SDS011;20582;52.196;20.952;2022-12-29T03:28:22;13.40;;;6.25;;
34317;SDS011;20582;52.196;20.952;2022-12-29T03:30:49;12.60;;;6.30;;
34317;SDS011;20582;52.196;20.952;2022-12-29T03:33:16;12.57;;;6.15;;
34317;SDS011;20582;52.196;20.952;2022-12-29T03:35:43;14.80;;;6.47;;
34317;SDS011;20582;52.196;20.952;2022-12-29T03:38:12;14.38;;;6.15;;
34317;SDS011;20582;52.196;20.952;2022-12-29T03:40:39;14.35;;;6.80;;
34317;SDS011;20582;52.196;20.952;2022-12-29T03:43:07;16.67;;;6.95;;
34317;SDS011;20582;52.196;20.952;2022-12-29T03:45:33;14.32;;;6.28;;
34317;SDS011;20582;52.196;20.952;2022-12-29T03:47:59;17.00;;;7.40;;
34317;SDS011;20582;52.196;20.952;2022-12-29T03:50:25;15.65;;;6.68;;
34317;SDS011;20582;52.196;20.952;2022-12-29T03:52:51;13.07;;;6.43;;
34317;SDS011;20582;52.196;20.952;2022-12-29T03:55:17;10.80;;;5.90;;
34317;SDS011;20582;52.196;20.952;2022-12-29T03:57:43;13.38;;;6.32;;
34317;SDS011;20582;52.196;20.952;2022-12-29T04:00:09;13.70;;;6.50;;
34317;SDS011;20582;52.196;20.952;2022-12-29T04:02:35;13.23;;;6.47;;
34317;SDS011;20582;52.196;20.952;2022-12-29T04:05:01;13.55;;;6.43;;
34317;SDS011;20582;52.196;20.952;2022-12-29T04:07:27;15.88;;;7.50;;
34317;SDS011;20582;52.196;20.952;2022-12-29T04:09:53;12.55;;;6.65;;
34317;SDS011;20582;52.196;20.952;2022-12-29T04:12:19;14.13;;;7.03;;
34317;SDS011;20582;52.196;20.952;2022-12-29T04:14:45;14.02;;;7.22;;
34317;SDS011;20582;52.196;20.952;2022-12-29T04:17:11;14.80;;;7.32;;
34317;SDS011;20582;52.196;20.952;2022-12-29T04:19:37;14.00;;;6.90;;
34317;SDS011;20582;52.196;20.952;2022-12-29T04:22:03;13.82;;;6.78;;
34317;SDS011;20582;52.196;20.952;2022-12-29T04:24:29;15.70;;;7.25;;
34317;SDS011;20582;52.196;20.952;2022-12-29T04:26:55;15.40;;;6.75;;
34317;SDS011;20582;52.196;20.952;2022-12-29T04:29:21;15.80;;;7.75;;
34317;SDS011;20582;52.196;20.952;2022-12-29T04:31:47;15.65;;;7.45;;
34317;SDS011;20582;52.196;20.952;2022-12-29T04:34:13;15.75;;;7.18;;
34317;SDS011;20582;52.196;20.952;2022-12-29T04:36:39;14.65;;;7.47;;
34317;SDS011;20582;52.196;20.952;2022-12-29T04:39:05;18.55;;;8.45;;
34317;SDS011;20582;52.196;20.952;2022-12-29T04:41:31;16.27;;;7.88;;
34317;SDS011;20582;52.196;20.952;2022-12-29T04:43:57;16.30;;;7.82;;
34317;SDS011;20582;52.196;20.952;2022-12-29T04:46:23;15.90;;;7.65;;
34317;SDS011;20582;52.196;20.952;2022-12-29T04:48:49;20.77;;;8.00;;
34317;SDS011;20582;52.196;20.952;2022-12-29T04:51:15;16.13;;;8.18;;
34317;SDS011;20582;52.196;20.952;2022-12-29T04:53:41;14.50;;;7.63;;
34317;SDS011;20582;52.196;20.952;2022-12-29T04:56:07;20.02;;;8.18;;
34317;SDS011;20582;52.196;20.952;2022-12-29T04:58:34;17.05;;;8.02;;
34317;SDS011;20582;52.196;20.952;2022-12-29T05:01:00;18.73;;;8.90;;
34317;SDS011;20582;52.196;20.952;2022-12-29T05:03:26;19.17;;;9.02;;
34317;SDS011;20582;52.196;20.952;2022-12-29T05:05:53;20.40;;;8.65;;
34317;SDS011;20582;52.196;20.952;2022-12-29T05:08:19;18.65;;;8.35;;
34317;SDS011;20582;52.196;20.952;2022-12-29T05:10:45;19.25;;;8.82;;
34317;SDS011;20582;52.196;20.952;2022-12-29T05:13:11;16.27;;;7.82;;
34317;SDS011;20582;52.196;20.952;2022-12-29T05:15:37;21.60;;;8.57;;
34317;SDS011;20582;52.196;20.952;2022-12-29T05:18:03;18.52;;;8.88;;
34317;SDS011;20582;52.196;20.952;2022-12-29T05:20:29;18.70;;;8.10;;
34317;SDS011;20582;52.196;20.952;2022-12-29T05:22:55;19.33;;;8.63;;
34317;SDS011;20582;52.196;20.952;2022-12-29T05:25:21;20.33;;;8.38;;
34317;SDS011;20582;52.196;20.952;2022-12-29T05:27:47;16.67;;;8.73;;
34317;SDS011;20582;52.196;20.952;2022-12-29T05:30:13;17.92;;;8.07;;
34317;SDS011;20582;52.196;20.952;2022-12-29T05:32:39;21.08;;;9.23;;
34317;SDS011;20582;52.196;20.952;2022-12-29T05:35:05;20.35;;;8.63;;
34317;SDS011;20582;52.196;20.952;2022-12-29T05:37:31;18.58;;;8.15;;
34317;SDS011;20582;52.196;20.952;2022-12-29T05:39:57;18.92;;;9.25;;
34317;SDS011;20582;52.196;20.952;2022-12-29T05:42:24;20.30;;;8.90;;
34317;SDS011;20582;52.196;20.952;2022-12-29T05:44:50;19.05;;;8.70;;
34317;SDS011;20582;52.196;20.952;2022-12-29T05:47:18;18.10;;;8.63;;
34317;SDS011;20582;52.196;20.952;2022-12-29T05:49:44;18.92;;;8.32;;
34317;SDS011;20582;52.196;20.952;2022-12-29T05:52:10;19.13;;;7.57;;
34317;SDS011;20582;52.196;20.952;2022-12-29T05:54:36;16.98;;;8.65;;
34317;SDS011;20582;52.196;20.952;2022-12-29T05:57:02;18.02;;;8.43;;
34317;SDS011;20582;52.196;20.952;2022-12-29T05:59:28;19.20;;;8.95;;
34317;SDS011;20582;52.196;20.952;2022-12-29T06:01:54;19.95;;;8.32;;
34317;SDS011;20582;52.196;20.952;2022-12-29T06:04:20;18.15;;;8.63;;
34317;SDS011;20582;52.196;20.952;2022-12-29T06:06:46;19.02;;;8.27;;
34317;SDS011;20582;52.196;20.952;2022-12-29T06:09:12;20.80;;;7.82;;
34317;SDS011;20582;52.196;20.952;2022-12-29T06:11:38;17.63;;;8.23;;
34317;SDS011;20582;52.196;20.952;2022-12-29T06:14:04;17.48;;;7.95;;
34317;SDS011;20582;52.196;20.952;2022-12-29T06:16:30;18.70;;;8.55;;
34317;SDS011;20582;52.196;20.952;2022-12-29T06:18:55;18.20;;;7.60;;
34317;SDS011;20582;52.196;20.952;2022-12-29T06:21:21;17.05;;;7.80;;
34317;SDS011;20582;52.196;20.952;2022-12-29T06:23:47;14.18;;;6.55;;
34317;SDS011;20582;52.196;20.952;2022-12-29T06:26:13;18.10;;;7.70;;
34317;SDS011;20582;52.196;20.952;2022-12-29T06:28:39;15.35;;;7.32;;
34317;SDS011;20582;52.196;20.952;2022-12-29T06:31:08;18.42;;;7.85;;
34317;SDS011;20582;52.196;20.952;2022-12-29T06:33:34;15.18;;;7.35;;
34317;SDS011;20582;52.196;20.952;2022-12-29T06:36:00;15.60;;;7.45;;
34317;SDS011;20582;52.196;20.952;2022-12-29T06:38:26;15.52;;;7.28;;
34317;SDS011;20582;52.196;20.952;2022-12-29T06:40:52;16.00;;;7.88;;
34317;SDS011;20582;52.196;20.952;2022-12-29T06:43:17;15.05;;;7.00;;
34317;SDS011;20582;52.196;20.952;2022-12-29T06:45:43;16.75;;;7.40;;
34317;SDS011;20582;52.196;20.952;2022-12-29T06:48:09;13.98;;;6.85;;
34317;SDS011;20582;52.196;20.952;2022-12-29T06:50:35;15.95;;;6.63;;
34317;SDS011;20582;52.196;20.952;2022-12-29T06:53:01;15.20;;;6.95;;
34317;SDS011;20582;52.196;20.952;2022-12-29T06:55:27;14.98;;;7.28;;
34317;SDS011;20582;52.196;20.952;2022-12-29T06:57:54;15.63;;;6.60;;
34317;SDS011;20582;52.196;20.952;2022-12-29T07:00:21;16.85;;;6.85;;
34317;SDS011;20582;52.196;20.952;2022-12-29T07:02:47;12.85;;;6.47;;
34317;SDS011;20582;52.196;20.952;2022-12-29T07:05:13;15.13;;;6.72;;
34317;SDS011;20582;52.196;20.952;2022-12-29T07:07:39;16.45;;;6.80;;
34317;SDS011;20582;52.196;20.952;2022-12-29T07:10:05;21.00;;;6.75;;
34317;SDS011;20582;52.196;20.952;2022-12-29T07:12:31;14.10;;;7.15;;
34317;SDS011;20582;52.196;20.952;2022-12-29T07:14:57;15.45;;;6.65;;
34317;SDS011;20582;52.196;20.952;2022-12-29T07:17:23;14.45;;;6.68;;
34317;SDS011;20582;52.196;20.952;2022-12-29T07:19:49;13.95;;;7.00;;
34317;SDS011;20582;52.196;20.952;2022-12-29T07:22:16;14.43;;;6.60;;
34317;SDS011;20582;52.196;20.952;2022-12-29T07:24:42;14.40;;;6.18;;
34317;SDS011;20582;52.196;20.952;2022-12-29T07:27:08;14.75;;;7.03;;
34317;SDS011;20582;52.196;20.952;2022-12-29T07:29:36;16.58;;;6.57;;
34317;SDS011;20582;52.196;20.952;2022-12-29T07:32:02;14.43;;;6.22;;
34317;SDS011;20582;52.196;20.952;2022-12-29T07:34:28;14.38;;;6.53;;
34317;SDS011;20582;52.196;20.952;2022-12-29T07:36:54;14.60;;;6.07;;
34317;SDS011;20582;52.196;20.952;2022-12-29T07:39:20;14.65;;;6.28;;
34317;SDS011;20582;52.196;20.952;2022-12-29T07:41:46;14.07;;;6.38;;
34317;SDS011;20582;52.196;20.952;2022-12-29T07:44:12;12.75;;;5.95;;
34317;SDS011;20582;52.196;20.952;2022-12-29T07:46:38;16.20;;;6.82;;
34317;SDS011;20582;52.196;20.952;2022-12-29T07:49:04;11.55;;;6.32;;
34317;SDS011;20582;52.196;20.952;2022-12-29T07:51:30;14.25;;;6.30;;
34317;SDS011;20582;52.196;20.952;2022-12-29T07:53:56;16.73;;;6.28;;
34317;SDS011;20582;52.196;20.952;2022-12-29T07:56:25;14.52;;;6.60;;
34317;SDS011;20582;52.196;20.952;2022-12-29T07:58:51;12.68;;;6.50;;
34317;SDS011;20582;52.196;20.952;2022-12-29T08:01:17;14.90;;;6.70;;
34317;SDS011;20582;52.196;20.952;2022-12-29T08:03:43;11.40;;;5.88;;
34317;SDS011;20582;52.196;20.952;2022-12-29T08:06:09;13.13;;;6.47;;
34317;SDS011;20582;52.196;20.952;2022-12-29T08:08:35;12.38;;;6.10;;
34317;SDS011;20582;52.196;20.952;2022-12-29T08:11:01;13.60;;;6.05;;
34317;SDS011;20582;52.196;20.952;2022-12-29T08:13:27;13.25;;;6.10;;
34317;SDS011;20582;52.196;20.952;2022-12-29T08:15:53;15.13;;;6.00;;
34317;SDS011;20582;52.196;20.952;2022-12-29T08:18:19;14.30;;;6.03;;
34317;SDS011;20582;52.196;20.952;2022-12-29T08:20:45;16.00;;;6.22;;
34317;SDS011;20582;52.196;20.952;2022-12-29T08:23:11;14.82;;;6.07;;
34317;SDS011;20582;52.196;20.952;2022-12-29T08:25:37;13.02;;;5.68;;
34317;SDS011;20582;52.196;20.952;2022-12-29T08:28:03;13.68;;;6.78;;
34317;SDS011;20582;52.196;20.952;2022-12-29T08:30:29;13.73;;;6.22;;
34317;SDS011;20582;52.196;20.952;2022-12-29T08:32:55;14.07;;;5.75;;
34317;SDS011;20582;52.196;20.952;2022-12-29T08:35:21;11.02;;;5.85;;
34317;SDS011;20582;52.196;20.952;2022-12-29T08:37:47;14.18;;;6.15;;
34317;SDS011;20582;52.196;20.952;2022-12-29T08:40:13;13.20;;;6.35;;
34317;SDS011;20582;52.196;20.952;2022-12-29T08:42:39;12.77;;;5.65;;
34317;SDS011;20582;52.196;20.952;2022-12-29T08:45:05;14.32;;;5.97;;
34317;SDS011;20582;52.196;20.952;2022-12-29T08:47:31;11.60;;;5.90;;
34317;SDS011;20582;52.196;20.952;2022-12-29T08:49:57;13.15;;;5.85;;
34317;SDS011;20582;52.196;20.952;2022-12-29T08:52:23;13.38;;;5.85;;
34317;SDS011;20582;52.196;20.952;2022-12-29T08:54:49;15.32;;;6.30;;
34317;SDS011;20582;52.196;20.952;2022-12-29T08:57:15;13.23;;;7.07;;
34317;SDS011;20582;52.196;20.952;2022-12-29T08:59:41;14.63;;;5.80;;
34317;SDS011;20582;52.196;20.952;2022-12-29T09:02:10;13.93;;;6.50;;
34317;SDS011;20582;52.196;20.952;2022-12-29T09:04:36;13.30;;;5.57;;
34317;SDS011;20582;52.196;20.952;2022-12-29T09:07:02;13.68;;;5.60;;
34317;SDS011;20582;52.196;20.952;2022-12-29T09:09:29;15.65;;;6.72;;
34317;SDS011;20582;52.196;20.952;2022-12-29T09:11:55;14.60;;;6.03;;
34317;SDS011;20582;52.196;20.952;2022-12-29T09:14:21;12.38;;;6.15;;
34317;SDS011;20582;52.196;20.952;2022-12-29T09:16:47;12.48;;;6.15;;
34317;SDS011;20582;52.196;20.952;2022-12-29T09:19:31;12.80;;;6.53;;
34317;SDS011;20582;52.196;20.952;2022-12-29T09:21:57;12.60;;;5.90;;
34317;SDS011;20582;52.196;20.952;2022-12-29T09:24:23;11.68;;;5.22;;
34317;SDS011;20582;52.196;20.952;2022-12-29T09:26:49;13.05;;;6.15;;
34317;SDS011;20582;52.196;20.952;2022-12-29T09:29:15;11.52;;;5.35;;
34317;SDS011;20582;52.196;20.952;2022-12-29T09:31:41;12.50;;;6.05;;
34317;SDS011;20582;52.196;20.952;2022-12-29T09:34:07;14.85;;;7.45;;
34317;SDS011;20582;52.196;20.952;2022-12-29T09:36:33;12.70;;;5.65;;
34317;SDS011;20582;52.196;20.952;2022-12-29T09:38:59;14.75;;;7.60;;
34317;SDS011;20582;52.196;20.952;2022-12-29T09:41:26;11.98;;;6.10;;
34317;SDS011;20582;52.196;20.952;2022-12-29T09:44:40;13.30;;;5.85;;
34317;SDS011;20582;52.196;20.952;2022-12-29T09:46:49;11.43;;;5.75;;
34317;SDS011;20582;52.196;20.952;2022-12-29T09:49:19;11.23;;;5.50;;
34317;SDS011;20582;52.196;20.952;2022-12-29T09:51:49;13.95;;;6.00;;
34317;SDS011;20582;52.196;20.952;2022-12-29T09:57:16;11.95;;;5.40;;
34317;SDS011;20582;52.196;20.952;2022-12-29T09:59:43;13.73;;;6.03;;
34317;SDS011;20582;52.196;20.952;2022-12-29T10:02:16;12.35;;;5.93;;
34317;SDS011;20582;52.196;20.952;2022-12-29T10:04:46;13.63;;;5.90;;
34317;SDS011;20582;52.196;20.952;2022-12-29T10:09:45;12.88;;;5.45;;
34317;SDS011;20582;52.196;20.952;2022-12-29T10:22:48;12.55;;;5.90;;
34317;SDS011;20582;52.196;20.952;2022-12-29T10:25:18;10.80;;;5.30;;
34317;SDS011;20582;52.196;20.952;2022-12-29T10:27:48;17.35;;;6.00;;
34317;SDS011;20582;52.196;20.952;2022-12-29T10:30:14;13.98;;;6.05;;
34317;SDS011;20582;52.196;20.952;2022-12-29T10:32:43;17.08;;;6.80;;
34317;SDS011;20582;52.196;20.952;2022-12-29T10:35:14;19.43;;;7.80;;
34317;SDS011;20582;52.196;20.952;2022-12-29T10:37:46;14.98;;;6.55;;
34317;SDS011;20582;52.196;20.952;2022-12-29T10:42:44;10.90;;;5.53;;
34317;SDS011;20582;52.196;20.952;2022-12-29T10:45:12;12.13;;;5.78;;
34317;SDS011;20582;52.196;20.952;2022-12-29T10:47:40;10.88;;;5.43;;
34317;SDS011;20582;52.196;20.952;2022-12-29T10:50:11;11.93;;;5.45;;
34317;SDS011;20582;52.196;20.952;2022-12-29T10:52:38;12.48;;;5.90;;
34317;SDS011;20582;52.196;20.952;2022-12-29T10:55:07;11.32;;;5.40;;
34317;SDS011;20582;52.196;20.952;2022-12-29T10:57:35;12.68;;;5.63;;
34317;SDS011;20582;52.196;20.952;2022-12-29T11:00:08;12.70;;;5.30;;
34317;SDS011;20582;52.196;20.952;2022-12-29T11:02:43;12.02;;;5.35;;
34317;SDS011;20582;52.196;20.952;2022-12-29T11:05:17;11.50;;;5.00;;
34317;SDS011;20582;52.196;20.952;2022-12-29T11:07:46;11.23;;;5.80;;
34317;SDS011;20582;52.196;20.952;2022-12-29T11:10:18;9.52;;;5.13;;
34317;SDS011;20582;52.196;20.952;2022-12-29T11:13:00;12.05;;;6.35;;
34317;SDS011;20582;52.196;20.952;2022-12-29T11:15:27;14.10;;;6.28;;
34317;SDS011;20582;52.196;20.952;2022-12-29T11:17:58;12.60;;;5.97;;
34317;SDS011;20582;52.196;20.952;2022-12-29T11:20:29;11.32;;;6.22;;
34317;SDS011;20582;52.196;20.952;2022-12-29T11:22:55;17.13;;;6.38;;
34317;SDS011;20582;52.196;20.952;2022-12-29T11:25:21;16.23;;;6.47;;
34317;SDS011;20582;52.196;20.952;2022-12-29T11:30:23;13.30;;;5.82;;
34317;SDS011;20582;52.196;20.952;2022-12-29T11:32:51;14.35;;;6.75;;
34317;SDS011;20582;52.196;20.952;2022-12-29T11:35:36;13.35;;;6.38;;
34317;SDS011;20582;52.196;20.952;2022-12-29T11:38:04;12.75;;;6.22;;
34317;SDS011;20582;52.196;20.952;2022-12-29T11:40:30;14.93;;;6.43;;
34317;SDS011;20582;52.196;20.952;2022-12-29T11:43:01;14.20;;;5.78;;
34317;SDS011;20582;52.196;20.952;2022-12-29T11:45:34;13.68;;;5.05;;
34317;SDS011;20582;52.196;20.952;2022-12-29T11:48:18;14.50;;;6.03;;
34317;SDS011;20582;52.196;20.952;2022-12-29T11:50:49;13.50;;;5.82;;
34317;SDS011;20582;52.196;20.952;2022-12-29T11:53:17;15.13;;;5.80;;
34317;SDS011;20582;52.196;20.952;2022-12-29T11:55:52;11.85;;;5.90;;
34317;SDS011;20582;52.196;20.952;2022-12-29T11:58:18;15.43;;;5.75;;
34317;SDS011;20582;52.196;20.952;2022-12-29T12:00:44;14.18;;;5.63;;
34317;SDS011;20582;52.196;20.952;2022-12-29T12:03:18;13.98;;;5.75;;
34317;SDS011;20582;52.196;20.952;2022-12-29T12:05:46;13.82;;;5.30;;
34317;SDS011;20582;52.196;20.952;2022-12-29T12:08:19;17.00;;;6.07;;
34317;SDS011;20582;52.196;20.952;2022-12-29T12:10:56;13.68;;;5.70;;
34317;SDS011;20582;52.196;20.952;2022-12-29T12:18:52;12.00;;;5.88;;
34317;SDS011;20582;52.196;20.952;2022-12-29T12:21:30;13.95;;;5.75;;
34317;SDS011;20582;52.196;20.952;2022-12-29T12:24:11;12.43;;;5.70;;
34317;SDS011;20582;52.196;20.952;2022-12-29T12:27:09;17.08;;;7.40;;
34317;SDS011;20582;52.196;20.952;2022-12-29T12:29:41;13.30;;;5.45;;
34317;SDS011;20582;52.196;20.952;2022-12-29T12:32:11;13.02;;;5.55;;
34317;SDS011;20582;52.196;20.952;2022-12-29T12:34:39;20.13;;;6.00;;
34317;SDS011;20582;52.196;20.952;2022-12-29T12:37:12;12.85;;;5.63;;
34317;SDS011;20582;52.196;20.952;2022-12-29T12:39:44;13.65;;;5.93;;
34317;SDS011;20582;52.196;20.952;2022-12-29T12:42:35;16.20;;;6.25;;
34317;SDS011;20582;52.196;20.952;2022-12-29T12:48:06;15.30;;;6.10;;
34317;SDS011;20582;52.196;20.952;2022-12-29T12:50:48;15.33;;;6.63;;
34317;SDS011;20582;52.196;20.952;2022-12-29T12:59:07;14.23;;;6.15;;
34317;SDS011;20582;52.196;20.952;2022-12-29T13:02:01;15.10;;;6.30;;
34317;SDS011;20582;52.196;20.952;2022-12-29T13:10:00;11.77;;;5.72;;
34317;SDS011;20582;52.196;20.952;2022-12-29T13:12:31;14.07;;;6.03;;
34317;SDS011;20582;52.196;20.952;2022-12-29T13:15:09;11.73;;;5.47;;
34317;SDS011;20582;52.196;20.952;2022-12-29T13:22:54;16.48;;;6.95;;
34317;SDS011;20582;52.196;20.952;2022-12-29T13:28:04;16.35;;;6.50;;
34317;SDS011;20582;52.196;20.952;2022-12-29T13:35:36;17.48;;;6.75;;
34317;SDS011;20582;52.196;20.952;2022-12-29T13:38:08;12.82;;;7.13;;
34317;SDS011;20582;52.196;20.952;2022-12-29T13:40:38;12.13;;;6.18;;
34317;SDS011;20582;52.196;20.952;2022-12-29T13:43:05;16.55;;;6.72;;
34317;SDS011;20582;52.196;20.952;2022-12-29T13:45:32;14.68;;;6.72;;
34317;SDS011;20582;52.196;20.952;2022-12-29T13:48:17;12.77;;;6.13;;
34317;SDS011;20582;52.196;20.952;2022-12-29T13:50:47;12.65;;;6.18;;
34317;SDS011;20582;52.196;20.952;2022-12-29T13:53:30;15.05;;;6.80;;
34317;SDS011;20582;52.196;20.952;2022-12-29T13:58:37;15.68;;;6.93;;
34317;SDS011;20582;52.196;20.952;2022-12-29T14:01:28;13.68;;;6.65;;
34317;SDS011;20582;52.196;20.952;2022-12-29T14:03:55;13.27;;;6.03;;
34317;SDS011;20582;52.196;20.952;2022-12-29T14:06:23;16.23;;;6.40;;
34317;SDS011;20582;52.196;20.952;2022-12-29T14:08:50;14.73;;;6.35;;
34317;SDS011;20582;52.196;20.952;2022-12-29T14:11:18;13.45;;;6.30;;
34317;SDS011;20582;52.196;20.952;2022-12-29T14:13:46;14.35;;;6.75;;
34317;SDS011;20582;52.196;20.952;2022-12-29T14:16:33;13.40;;;6.63;;
34317;SDS011;20582;52.196;20.952;2022-12-29T14:19:32;15.73;;;6.80;;
34317;SDS011;20582;52.196;20.952;2022-12-29T14:21:51;13.60;;;6.60;;
34317;SDS011;20582;52.196;20.952;2022-12-29T14:27:00;13.48;;;6.05;;
34317;SDS011;20582;52.196;20.952;2022-12-29T14:31:55;16.63;;;7.60;;
34317;SDS011;20582;52.196;20.952;2022-12-29T14:39:30;14.20;;;7.47;;
34317;SDS011;20582;52.196;20.952;2022-12-29T14:42:00;19.80;;;7.60;;
34317;SDS011;20582;52.196;20.952;2022-12-29T14:44:27;16.73;;;7.43;;
34317;SDS011;20582;52.196;20.952;2022-12-29T14:49:20;15.38;;;7.63;;
34317;SDS011;20582;52.196;20.952;2022-12-29T14:51:47;22.52;;;8.50;;
34317;SDS011;20582;52.196;20.952;2022-12-29T14:56:59;17.83;;;7.55;;
34317;SDS011;20582;52.196;20.952;2022-12-29T14:59:26;19.42;;;7.82;;
34317;SDS011;20582;52.196;20.952;2022-12-29T15:01:53;20.05;;;8.20;;
34317;SDS011;20582;52.196;20.952;2022-12-29T15:04:30;16.33;;;8.15;;
34317;SDS011;20582;52.196;20.952;2022-12-29T15:06:57;16.92;;;7.70;;
34317;SDS011;20582;52.196;20.952;2022-12-29T15:11:57;17.77;;;7.65;;
34317;SDS011;20582;52.196;20.952;2022-12-29T15:14:28;15.10;;;8.02;;
34317;SDS011;20582;52.196;20.952;2022-12-29T15:16:55;19.03;;;8.13;;
34317;SDS011;20582;52.196;20.952;2022-12-29T15:19:21;22.83;;;8.90;;
34317;SDS011;20582;52.196;20.952;2022-12-29T15:21:47;16.80;;;8.57;;
34317;SDS011;20582;52.196;20.952;2022-12-29T15:24:13;22.50;;;9.65;;
34317;SDS011;20582;52.196;20.952;2022-12-29T15:26:40;17.27;;;9.25;;
34317;SDS011;20582;52.196;20.952;2022-12-29T15:31:52;24.55;;;10.15;;
34317;SDS011;20582;52.196;20.952;2022-12-29T15:34:19;32.17;;;12.18;;
34317;SDS011;20582;52.196;20.952;2022-12-29T15:36:46;26.30;;;9.90;;
34317;SDS011;20582;52.196;20.952;2022-12-29T15:39:19;16.17;;;8.20;;
34317;SDS011;20582;52.196;20.952;2022-12-29T15:41:50;23.40;;;9.43;;
34317;SDS011;20582;52.196;20.952;2022-12-29T15:44:29;19.33;;;9.07;;
34317;SDS011;20582;52.196;20.952;2022-12-29T15:46:56;25.77;;;10.55;;
34317;SDS011;20582;52.196;20.952;2022-12-29T15:49:22;29.70;;;11.85;;
34317;SDS011;20582;52.196;20.952;2022-12-29T15:51:49;22.50;;;10.02;;
34317;SDS011;20582;52.196;20.952;2022-12-29T15:54:16;31.02;;;10.27;;
34317;SDS011;20582;52.196;20.952;2022-12-29T15:56:42;20.42;;;9.50;;
34317;SDS011;20582;52.196;20.952;2022-12-29T16:01:57;21.58;;;8.23;;
34317;SDS011;20582;52.196;20.952;2022-12-29T16:04:27;16.30;;;8.03;;
34317;SDS011;20582;52.196;20.952;2022-12-29T16:09:35;16.73;;;8.10;;
34317;SDS011;20582;52.196;20.952;2022-12-29T16:12:05;21.75;;;8.55;;
34317;SDS011;20582;52.196;20.952;2022-12-29T16:14:33;16.20;;;8.15;;
34317;SDS011;20582;52.196;20.952;2022-12-29T16:17:03;19.30;;;8.25;;
34317;SDS011;20582;52.196;20.952;2022-12-29T16:19:32;15.02;;;7.82;;
34317;SDS011;20582;52.196;20.952;2022-12-29T16:21:59;17.58;;;8.90;;
34317;SDS011;20582;52.196;20.952;2022-12-29T16:24:27;19.83;;;8.18;;
34317;SDS011;20582;52.196;20.952;2022-12-29T16:27:01;20.33;;;8.57;;
34317;SDS011;20582;52.196;20.952;2022-12-29T16:29:28;21.33;;;8.80;;